Time;durP1;ratioP1;P1;durP2;ratioP2;P2;SDS_P1;SDS_P2;PMS_P1;PMS_P2;Temp;Humidity;BMP_temperature;BMP_pressure;BME280_temperature;BME280_humidity;BME280_pressure;Samples;Min_cycle;Max_cycle;Signal;HPM_P1;HPM_P2
2021/06/10 00:00:48;;;;;;;4.28;2.25;;;22.00;62.00;;;;;;5066885;28;20117;-81
2021/06/10 00:03:15;;;;;;;2.70;2.50;;;21.90;61.90;;;;;;5067033;28;20476;-82
2021/06/10 00:05:41;;;;;;;2.72;2.35;;;21.90;62.00;;;;;;5066759;28;20085;-84
2021/06/10 00:08:08;;;;;;;2.20;2.00;;;21.90;62.10;;;;;;5066643;28;20415;-83
2021/06/10 00:10:37;;;;;;;2.63;2.40;;;21.80;61.90;;;;;;5066551;28;20388;-82
2021/06/10 00:13:04;;;;;;;2.88;2.65;;;21.80;62.00;;;;;;5066070;28;20035;-82
2021/06/10 00:15:33;;;;;;;2.85;2.65;;;21.80;62.10;;;;;;5067326;28;20036;-84
2021/06/10 00:17:59;;;;;;;2.72;2.53;;;21.80;62.10;;;;;;5066708;28;20043;-82
2021/06/10 00:20:27;;;;;;;2.58;2.38;;;21.70;61.90;;;;;;5066876;28;20028;-82
2021/06/10 00:22:55;;;;;;;3.22;2.80;;;21.70;62.00;;;;;;5066087;28;20037;-83
2021/06/10 00:25:25;;;;;;;3.40;3.10;;;21.70;62.10;;;;;;5048856;28;20028;-82
2021/06/10 00:27:52;;;;;;;2.90;2.45;;;21.60;62.00;;;;;;5048947;28;20467;-82
2021/06/10 00:30:18;;;;;;;3.42;2.92;;;21.60;62.00;;;;;;5066219;28;20040;-82
2021/06/10 00:32:46;;;;;;;2.80;2.60;;;21.60;62.10;;;;;;5066462;28;20095;-84
2021/06/10 00:35:12;;;;;;;3.58;3.13;;;21.60;62.10;;;;;;5066529;28;20032;-83
2021/06/10 00:37:39;;;;;;;3.00;2.53;;;21.60;62.20;;;;;;5070603;28;20047;-84
2021/06/10 00:40:07;;;;;;;2.92;2.72;;;21.60;62.30;;;;;;5047187;28;20029;-85
2021/06/10 00:42:34;;;;;;;3.88;3.47;;;21.50;62.10;;;;;;5050519;28;20031;-84
2021/06/10 00:45:00;;;;;;;3.08;2.78;;;21.50;62.10;;;;;;5052258;28;20505;-85
2021/06/10 00:47:26;;;;;;;3.65;2.90;;;21.50;62.20;;;;;;5070849;28;20041;-85
2021/06/10 00:49:52;;;;;;;3.00;2.67;;;21.50;62.20;;;;;;5052144;28;20391;-86
2021/06/10 00:52:18;;;;;;;2.65;2.42;;;21.40;62.10;;;;;;5070986;28;20097;-86
2021/06/10 00:54:44;;;;;;;3.30;2.90;;;21.40;62.10;;;;;;5070412;28;20461;-82
2021/06/10 00:57:11;;;;;;;3.15;2.85;;;21.40;62.20;;;;;;5071022;28;20060;-85
2021/06/10 00:59:37;;;;;;;3.50;2.80;;;21.40;62.20;;;;;;5070264;28;20063;-84
2021/06/10 01:02:03;;;;;;;3.40;2.78;;;21.40;62.30;;;;;;5052317;28;20079;-85
2021/06/10 01:04:29;;;;;;;4.25;3.00;;;21.30;62.10;;;;;;5070341;28;20041;-85
2021/06/10 01:07:21;;;;;;;3.85;3.42;;;21.30;62.20;;;;;;5070099;28;20415;-84
2021/06/10 01:09:57;;;;;;;3.15;2.88;;;21.30;62.30;;;;;;5069712;28;20044;-80
2021/06/10 01:12:37;;;;;;;3.58;2.83;;;21.30;62.30;;;;;;5051393;28;20039;-82
2021/06/10 01:15:11;;;;;;;4.10;2.40;;;21.30;62.40;;;;;;5051667;28;20395;-83
2021/06/10 01:17:42;;;;;;;;;;;21.30;62.40;;;;;;5052118;28;20035;-82
2021/06/10 01:20:12;;;;;;;3.08;2.70;;;21.20;62.50;;;;;;5051554;28;19908;-81
2021/06/10 01:22:56;;;;;;;2.70;2.50;;;21.20;62.10;;;;;;5051210;28;20028;-83
2021/06/10 01:25:35;;;;;;;2.80;2.60;;;21.20;62.20;;;;;;5052040;28;20531;-81
2021/06/10 01:28:25;;;;;;;3.22;2.60;;;21.20;62.30;;;;;;5051334;28;20041;-82
2021/06/10 01:30:59;;;;;;;4.82;3.10;;;21.10;62.20;;;;;;5051571;28;20045;-83
2021/06/10 01:33:31;;;;;;;3.58;2.75;;;21.10;62.30;;;;;;5071834;28;20028;-84
2021/06/10 01:36:08;;;;;;;2.85;2.65;;;21.10;62.30;;;;;;5071222;28;20032;-84
2021/06/10 01:38:34;;;;;;;3.63;2.70;;;21.10;62.30;;;;;;5070915;28;20415;-84
2021/06/10 01:41:01;;;;;;;3.20;2.33;;;21.00;62.20;;;;;;5071021;28;20028;-80
2021/06/10 01:43:31;;;;;;;3.10;2.80;;;21.00;62.30;;;;;;5053258;28;20036;-84
2021/06/10 01:45:58;;;;;;;2.95;2.58;;;21.00;62.30;;;;;;5071860;28;20103;-84
2021/06/10 01:48:25;;;;;;;2.88;2.60;;;20.90;62.20;;;;;;5094622;28;20044;-86
2021/06/10 01:50:54;;;;;;;4.18;2.88;;;20.90;62.20;;;;;;5095417;28;20036;-85
2021/06/10 01:53:23;;;;;;;4.68;2.55;;;20.90;62.30;;;;;;5095204;28;20091;-83
2021/06/10 01:55:50;;;;;;;3.30;3.00;;;20.90;62.30;;;;;;5094695;28;20043;-83
2021/06/10 01:58:18;;;;;;;3.05;2.30;;;20.80;62.20;;;;;;5094465;28;20074;-83
2021/06/10 02:00:48;;;;;;;3.72;2.47;;;20.90;62.40;;;;;;5075877;28;20032;-84
2021/06/10 02:03:15;;;;;;;2.42;2.20;;;20.90;62.50;;;;;;5059776;28;20186;-83
2021/06/10 02:05:42;;;;;;;2.58;2.30;;;20.80;62.30;;;;;;5093980;28;20104;-83
2021/06/10 02:08:13;;;;;;;3.17;2.88;;;20.80;62.40;;;;;;5093998;28;20032;-85
2021/06/10 02:10:42;;;;;;;3.95;2.40;;;20.80;62.50;;;;;;5094775;28;20051;-84
2021/06/10 02:13:09;;;;;;;3.17;2.88;;;20.80;62.50;;;;;;5093472;28;20028;-82
2021/06/10 02:15:36;;;;;;;2.80;2.47;;;20.70;62.30;;;;;;5075335;28;20040;-82
2021/06/10 02:18:03;;;;;;;2.97;2.72;;;20.70;62.40;;;;;;5075264;28;20020;-82
2021/06/10 02:20:29;;;;;;;3.00;2.80;;;20.70;62.40;;;;;;5093150;28;20031;-83
2021/06/10 02:22:56;;;;;;;4.13;2.67;;;20.70;62.50;;;;;;5093395;28;20028;-81
2021/06/10 02:25:22;;;;;;;3.10;2.60;;;20.70;62.50;;;;;;5092851;28;20042;-81
2021/06/10 02:27:48;;;;;;;3.70;3.03;;;20.70;62.50;;;;;;5093058;28;20020;-82
2021/06/10 02:30:15;;;;;;;3.53;3.22;;;20.70;62.50;;;;;;5059068;28;20131;-83
2021/06/10 02:32:41;;;;;;;4.30;3.05;;;20.60;62.40;;;;;;5094061;28;20520;-80
2021/06/10 02:35:09;;;;;;;3.25;2.92;;;20.60;62.40;;;;;;5093169;28;20035;-83
2021/06/10 02:37:37;;;;;;;3.45;2.95;;;20.60;62.50;;;;;;5092991;28;20059;-84
2021/06/10 02:40:11;;;;;;;3.75;3.03;;;20.60;62.50;;;;;;5092668;28;20482;-81
2021/06/10 02:42:38;;;;;;;3.50;3.15;;;20.60;63.20;;;;;;5093308;28;20028;-84
2021/06/10 02:45:06;;;;;;;3.75;3.45;;;20.60;62.60;;;;;;5093245;28;20046;-85
2021/06/10 02:47:33;;;;;;;3.78;3.22;;;20.50;62.40;;;;;;5092877;28;20487;-79
2021/06/10 02:50:00;;;;;;;3.58;3.28;;;20.50;62.50;;;;;;5092613;28;20063;-83
2021/06/10 02:52:28;;;;;;;4.07;3.17;;;20.50;62.50;;;;;;5093240;28;20054;-83
2021/06/10 02:54:55;;;;;;;4.00;3.17;;;20.50;62.50;;;;;;5093084;28;20038;-83
2021/06/10 02:57:24;;;;;;;5.55;3.40;;;20.40;62.40;;;;;;5092741;28;20368;-80
2021/06/10 02:59:51;;;;;;;3.92;3.13;;;20.40;62.40;;;;;;5092581;28;20483;-84
2021/06/10 03:02:19;;;;;;;3.28;2.90;;;20.40;62.50;;;;;;5092916;28;20028;-82
2021/06/10 03:04:45;;;;;;;3.40;3.10;;;20.40;62.50;;;;;;5092780;28;20063;-82
2021/06/10 03:07:13;;;;;;;4.40;3.10;;;20.40;62.50;;;;;;5092883;28;20039;-85
2021/06/10 03:09:42;;;;;;;3.92;3.53;;;20.40;62.60;;;;;;5092117;28;20039;-84
2021/06/10 03:12:09;;;;;;;3.70;3.40;;;20.30;62.40;;;;;;5092533;28;20028;-84
2021/06/10 03:14:37;;;;;;;2.95;2.65;;;20.30;62.50;;;;;;5092901;28;20110;-81
2021/06/10 03:17:04;;;;;;;3.20;3.00;;;20.30;62.50;;;;;;5074264;28;20059;-84
2021/06/10 03:19:30;;;;;;;3.30;2.78;;;20.30;62.50;;;;;;5093446;28;20035;-83
2021/06/10 03:21:56;;;;;;;3.85;3.45;;;20.30;62.60;;;;;;5092434;28;20042;-82
2021/06/10 03:24:22;;;;;;;5.82;3.20;;;20.30;62.60;;;;;;5092764;28;20036;-83
2021/06/10 03:26:50;;;;;;;3.28;2.90;;;20.20;62.50;;;;;;5074657;28;20040;-82
2021/06/10 03:29:16;;;;;;;3.70;3.40;;;20.20;62.50;;;;;;5074160;28;20031;-80
2021/06/10 03:31:43;;;;;;;4.30;3.10;;;20.30;62.70;;;;;;5073891;28;20036;-83
2021/06/10 03:34:10;;;;;;;4.20;3.30;;;20.20;62.60;;;;;;5092509;28;20024;-80
2021/06/10 03:36:36;;;;;;;3.13;2.83;;;20.20;62.60;;;;;;5074225;28;20043;-83
2021/06/10 03:39:03;;;;;;;3.40;3.10;;;20.20;62.90;;;;;;5074038;28;20024;-80
2021/06/10 03:41:30;;;;;;;4.03;3.00;;;20.20;62.70;;;;;;5092564;28;20082;-83
2021/06/10 03:43:56;;;;;;;4.70;3.40;;;20.20;62.70;;;;;;5092575;28;20028;-82
2021/06/10 03:46:23;;;;;;;3.85;3.28;;;20.10;62.60;;;;;;5092186;28;20040;-82
2021/06/10 03:48:49;;;;;;;3.22;2.58;;;20.10;62.60;;;;;;5091752;28;20039;-81
2021/06/10 03:51:18;;;;;;;3.38;2.90;;;20.10;62.60;;;;;;5091592;28;20039;-81
2021/06/10 03:53:45;;;;;;;3.53;3.22;;;20.10;62.60;;;;;;5091463;28;20047;-80
2021/06/10 03:56:11;;;;;;;3.03;2.72;;;20.10;62.60;;;;;;5091433;28;20043;-80
2021/06/10 03:58:37;;;;;;;3.00;2.70;;;20.10;62.70;;;;;;5091954;28;20422;-80
2021/06/10 04:01:04;;;;;;;4.93;3.33;;;20.10;62.70;;;;;;5090904;28;20028;-81
2021/06/10 04:03:30;;;;;;;3.42;3.13;;;20.10;62.70;;;;;;5073287;28;20082;-79
2021/06/10 04:05:56;;;;;;;3.40;3.05;;;20.10;62.70;;;;;;5091649;28;20032;-80
2021/06/10 04:08:22;;;;;;;4.07;3.30;;;20.00;62.60;;;;;;5091629;28;20024;-83
2021/06/10 04:10:48;;;;;;;3.55;2.88;;;20.00;62.60;;;;;;5092619;28;20287;-84
2021/06/10 04:13:14;;;;;;;3.80;3.40;;;20.00;62.60;;;;;;5096022;28;20024;-81
2021/06/10 04:15:41;;;;;;;3.80;3.40;;;20.00;62.60;;;;;;5096050;28;20146;-84
2021/06/10 04:18:07;;;;;;;3.40;3.10;;;20.00;62.70;;;;;;5095943;28;20035;-84
2021/06/10 04:20:33;;;;;;;3.28;2.80;;;20.00;62.70;;;;;;5096297;28;20028;-83
2021/06/10 04:22:58;;;;;;;4.25;3.10;;;20.00;62.70;;;;;;5095603;28;20036;-80
2021/06/10 04:25:24;;;;;;;3.42;3.13;;;20.00;62.80;;;;;;5096222;28;20034;-83
2021/06/10 04:27:51;;;;;;;3.97;2.85;;;19.90;62.60;;;;;;5095705;28;20502;-80
2021/06/10 04:30:17;;;;;;;3.05;2.70;;;19.90;62.70;;;;;;5095773;28;20040;-81
2021/06/10 04:32:45;;;;;;;3.88;2.85;;;19.90;62.70;;;;;;5078053;28;20031;-82
2021/06/10 04:35:13;;;;;;;3.10;2.85;;;19.90;62.70;;;;;;5095503;28;20050;-82
2021/06/10 04:37:39;;;;;;;3.80;3.45;;;19.90;62.70;;;;;;5077916;28;20031;-82
2021/06/10 04:40:06;;;;;;;3.13;2.80;;;19.90;62.70;;;;;;5077311;28;20038;-80
2021/06/10 04:42:32;;;;;;;5.50;3.30;;;19.90;62.70;;;;;;5095277;28;20028;-79
2021/06/10 04:44:58;;;;;;;3.67;3.38;;;19.90;62.80;;;;;;5095021;28;20020;-79
2021/06/10 04:47:24;;;;;;;3.50;3.10;;;19.90;62.80;;;;;;5086425;28;20100;-81
2021/06/10 04:49:50;;;;;;;3.30;3.00;;;19.90;62.80;;;;;;5052573;28;20123;-81
2021/06/10 04:52:16;;;;;;;3.15;2.83;;;19.90;62.80;;;;;;5052588;28;20128;-78
2021/06/10 04:54:42;;;;;;;3.15;2.85;;;19.90;62.80;;;;;;5052555;28;20025;-83
2021/06/10 04:57:08;;;;;;;3.45;3.15;;;19.90;62.90;;;;;;5052239;28;20479;-85
2021/06/10 04:59:34;;;;;;;3.97;3.05;;;19.90;62.80;;;;;;5072274;28;20516;-82
2021/06/10 05:02:01;;;;;;;3.17;2.72;;;19.90;62.90;;;;;;5054606;28;20036;-81
2021/06/10 05:04:27;;;;;;;2.80;2.60;;;19.90;62.90;;;;;;5054392;28;20102;-82
2021/06/10 05:06:53;;;;;;;2.97;2.65;;;19.90;62.80;;;;;;5032826;28;20036;-80
2021/06/10 05:09:20;;;;;;;3.60;3.28;;;19.90;62.80;;;;;;5049712;28;20024;-82
2021/06/10 05:11:46;;;;;;;3.72;3.17;;;19.90;62.90;;;;;;5070190;28;20039;-82
2021/06/10 05:14:12;;;;;;;4.00;3.17;;;19.90;62.90;;;;;;5070639;28;20028;-80
2021/06/10 05:16:38;;;;;;;4.13;2.70;;;19.90;62.90;;;;;;5070498;28;20388;-81
2021/06/10 05:19:04;;;;;;;2.75;2.47;;;19.90;62.90;;;;;;5069758;28;20024;-80
2021/06/10 05:21:30;;;;;;;3.75;3.33;;;19.90;62.90;;;;;;5069887;28;20502;-81
2021/06/10 05:23:57;;;;;;;3.53;3.00;;;19.90;62.90;;;;;;5069749;28;20108;-82
2021/06/10 05:26:23;;;;;;;3.45;3.13;;;19.90;62.90;;;;;;5069503;28;20475;-84
2021/06/10 05:28:52;;;;;;;3.25;2.80;;;19.90;62.90;;;;;;5069634;28;20036;-82
2021/06/10 05:31:19;;;;;;;2.70;2.33;;;19.90;62.90;;;;;;5051413;28;20041;-80
2021/06/10 05:33:45;;;;;;;4.45;3.20;;;19.90;62.80;;;;;;5069756;28;20024;-81
2021/06/10 05:36:11;;;;;;;3.38;3.08;;;19.90;62.80;;;;;;5052000;28;20372;-84
2021/06/10 05:38:37;;;;;;;2.83;2.63;;;20.00;63.00;;;;;;5069779;28;20429;-88
2021/06/10 05:41:03;;;;;;;3.40;2.55;;;20.00;62.90;;;;;;5068719;28;20732;-83
2021/06/10 05:43:30;;;;;;;3.45;2.72;;;20.00;62.90;;;;;;5069882;28;20089;-85
2021/06/10 05:45:56;;;;;;;3.90;3.50;;;20.00;62.90;;;;;;5052364;28;20043;-85
2021/06/10 05:48:22;;;;;;;4.13;3.42;;;20.00;62.90;;;;;;5069218;28;20440;-85
2021/06/10 05:50:48;;;;;;;3.90;3.28;;;20.00;62.90;;;;;;5050175;28;20147;-87
2021/06/10 05:53:15;;;;;;;3.42;2.55;;;20.00;62.90;;;;;;5063556;28;20031;-84
2021/06/10 05:55:43;;;;;;;3.38;2.90;;;20.00;62.90;;;;;;5052999;28;20024;-90
2021/06/10 05:58:09;;;;;;;2.92;2.53;;;20.00;62.90;;;;;;5070828;28;20048;-85
2021/06/10 06:00:35;;;;;;;3.55;2.88;;;20.00;62.90;;;;;;5053001;28;20192;-84
2021/06/10 06:03:03;;;;;;;3.33;3.03;;;20.00;62.90;;;;;;5071309;28;20143;-85
2021/06/10 06:05:32;;;;;;;3.28;2.97;;;20.00;62.90;;;;;;5057244;28;20040;-86
2021/06/10 06:07:59;;;;;;;3.88;2.65;;;20.00;62.90;;;;;;5051330;28;20032;-91
2021/06/10 06:10:28;;;;;;;4.90;3.30;;;20.10;63.00;;;;;;5068741;28;20409;-89
2021/06/10 06:12:56;;;;;;;3.60;3.05;;;20.10;63.00;;;;;;5044828;28;20028;-85
2021/06/10 06:15:23;;;;;;;4.18;3.35;;;20.10;63.00;;;;;;5021876;28;20056;-82
2021/06/10 06:17:50;;;;;;;3.35;2.90;;;20.10;63.00;;;;;;5062078;28;20037;-82
2021/06/10 06:20:19;;;;;;;3.78;3.17;;;20.10;62.90;;;;;;5050484;28;20403;-83
2021/06/10 06:22:45;;;;;;;3.35;2.67;;;20.10;62.90;;;;;;5068334;28;20025;-82
2021/06/10 06:25:13;;;;;;;4.10;3.28;;;20.10;62.90;;;;;;5068897;28;20028;-82
2021/06/10 06:27:40;;;;;;;3.13;2.83;;;20.20;63.10;;;;;;5067214;28;20123;-86
2021/06/10 06:30:08;;;;;;;4.95;3.22;;;20.20;63.10;;;;;;5050157;28;20357;-87
2021/06/10 06:32:35;;;;;;;4.10;3.17;;;20.20;63.00;;;;;;5067180;28;20408;-85
2021/06/10 06:35:03;;;;;;;3.45;2.90;;;20.20;63.00;;;;;;5049484;28;20316;-87
2021/06/10 06:37:29;;;;;;;4.00;3.45;;;20.20;63.00;;;;;;5050508;28;20469;-82
2021/06/10 06:39:55;;;;;;;3.53;2.95;;;20.30;63.10;;;;;;5068442;28;20028;-87
2021/06/10 06:42:21;;;;;;;4.10;3.60;;;20.30;63.10;;;;;;5067204;28;20112;-83
2021/06/10 06:44:47;;;;;;;5.18;3.17;;;20.40;63.20;;;;;;5049608;28;20150;-83
2021/06/10 06:47:13;;;;;;;3.40;3.13;;;20.40;63.20;;;;;;5049990;28;20392;-84
2021/06/10 06:49:39;;;;;;;3.20;2.90;;;20.50;63.30;;;;;;5050134;28;20098;-84
2021/06/10 06:52:06;;;;;;;3.25;2.80;;;20.50;63.30;;;;;;5068387;28;20037;-83
2021/06/10 06:54:32;;;;;;;3.33;3.05;;;20.50;63.20;;;;;;5068428;28;20035;-84
2021/06/10 06:56:58;;;;;;;3.75;3.08;;;20.60;63.30;;;;;;5050719;28;20029;-84
2021/06/10 06:59:23;;;;;;;4.82;3.10;;;20.60;63.20;;;;;;5032805;28;20037;-83
2021/06/10 07:01:50;;;;;;;2.90;2.42;;;20.70;63.30;;;;;;5030115;28;20071;-84
2021/06/10 07:04:16;;;;;;;3.35;3.05;;;20.70;63.20;;;;;;5046161;28;20029;-83
2021/06/10 07:06:42;;;;;;;4.05;3.30;;;20.80;63.40;;;;;;5047034;28;20040;-84
2021/06/10 07:09:08;;;;;;;3.05;2.75;;;20.80;63.30;;;;;;5062737;28;20122;-84
2021/06/10 07:11:35;;;;;;;3.10;2.70;;;20.90;63.30;;;;;;5049458;28;20036;-84
2021/06/10 07:14:02;;;;;;;4.38;3.30;;;20.90;63.20;;;;;;5049335;28;20496;-85
2021/06/10 07:16:29;;;;;;;3.35;3.05;;;20.90;63.20;;;;;;5066640;28;20260;-84
2021/06/10 07:18:55;;;;;;;4.70;3.42;;;20.90;63.10;;;;;;5035999;28;20036;-84
2021/06/10 07:21:21;;;;;;;2.80;2.58;;;20.90;63.20;;;;;;5031078;28;20408;-84
2021/06/10 07:23:47;;;;;;;3.50;2.88;;;21.00;63.30;;;;;;5042345;28;20052;-85
2021/06/10 07:26:14;;;;;;;3.42;2.90;;;21.00;63.30;;;;;;5063007;28;20024;-85
2021/06/10 07:28:40;;;;;;;4.05;2.80;;;21.00;63.20;;;;;;5049544;28;20051;-86
2021/06/10 07:31:06;;;;;;;4.40;2.95;;;21.00;63.20;;;;;;5049753;28;20036;-85
2021/06/10 07:33:32;;;;;;;4.38;2.92;;;21.00;63.20;;;;;;5055225;28;20024;-86
2021/06/10 07:35:58;;;;;;;2.55;2.35;;;21.10;63.30;;;;;;5050214;28;20036;-86
2021/06/10 07:38:24;;;;;;;3.08;2.78;;;21.10;63.30;;;;;;5050169;28;20020;-86
2021/06/10 07:40:50;;;;;;;3.35;2.92;;;21.20;63.40;;;;;;5049788;28;20055;-85
2021/06/10 07:43:16;;;;;;;2.40;2.20;;;21.20;63.30;;;;;;5049892;28;20021;-86
2021/06/10 07:45:43;;;;;;;3.10;2.80;;;21.30;63.40;;;;;;5050133;28;20032;-86
2021/06/10 07:48:09;;;;;;;2.60;2.40;;;21.40;63.50;;;;;;5049329;28;20141;-84
2021/06/10 07:50:36;;;;;;;3.60;2.67;;;21.50;63.60;;;;;;5050137;28;20032;-87
2021/06/10 07:53:02;;;;;;;2.95;2.65;;;21.60;63.60;;;;;;5046472;28;20469;-87
2021/06/10 07:55:28;;;;;;;3.13;2.10;;;21.80;63.80;;;;;;5037177;28;20050;-86
2021/06/10 07:58:00;;;;;;;3.22;2.38;;;21.90;63.70;;;;;;5037152;28;20029;-85
2021/06/10 08:00:27;;;;;;;2.28;2.08;;;22.10;63.80;;;;;;5045203;28;20032;-85
2021/06/10 08:02:58;;;;;;;3.00;2.60;;;22.30;63.80;;;;;;5049041;28;20028;-85
2021/06/10 08:05:25;;;;;;;3.20;2.83;;;22.50;64.00;;;;;;5049298;28;20039;-84
2021/06/10 08:07:53;;;;;;;4.72;2.55;;;22.70;64.00;;;;;;5049433;28;20395;-83
2021/06/10 08:10:19;;;;;;;2.63;2.42;;;23.00;64.10;;;;;;5066767;28;20055;-88
2021/06/10 08:12:46;;;;;;;2.40;2.10;;;23.30;64.00;;;;;;5067600;28;20031;-86
2021/06/10 08:15:12;;;;;;;2.67;2.15;;;23.50;63.80;;;;;;5067359;28;20435;-83
2021/06/10 08:17:38;;;;;;;2.50;2.30;;;23.60;63.70;;;;;;5051244;28;20127;-88
2021/06/10 08:20:08;;;;;;;2.90;2.47;;;23.70;63.70;;;;;;5036778;28;20171;-88
2021/06/10 08:22:34;;;;;;;2.88;2.10;;;23.70;63.50;;;;;;5030568;28;20028;-84
2021/06/10 08:25:00;;;;;;;2.35;2.15;;;23.80;63.60;;;;;;5034653;28;20027;-89
2021/06/10 08:27:26;;;;;;;2.40;2.17;;;23.90;63.60;;;;;;5052174;28;20107;-90
2021/06/10 08:29:52;;;;;;;1.98;1.77;;;24.00;63.70;;;;;;5048573;28;20158;-87
2021/06/10 08:32:18;;;;;;;2.33;1.80;;;24.10;63.70;;;;;;5052269;28;20138;-85
2021/06/10 08:34:44;;;;;;;2.17;1.80;;;24.20;63.70;;;;;;5049806;28;20028;-86
2021/06/10 08:37:10;;;;;;;2.40;2.05;;;24.30;63.50;;;;;;5067639;28;20033;-87
2021/06/10 08:39:36;;;;;;;2.33;1.80;;;24.40;63.50;;;;;;5048946;28;20029;-85
2021/06/10 08:42:02;;;;;;;2.10;1.85;;;24.50;63.40;;;;;;5048580;28;20086;-85
2021/06/10 08:44:31;;;;;;;2.55;2.28;;;24.60;63.40;;;;;;5067151;28;20039;-86
2021/06/10 08:46:57;;;;;;;4.68;2.10;;;24.60;63.30;;;;;;5067093;28;20544;-87
2021/06/10 08:49:24;;;;;;;2.22;2.03;;;24.70;63.40;;;;;;5068188;28;20051;-86
2021/06/10 08:51:50;;;;;;;2.47;1.65;;;24.80;63.40;;;;;;5032493;28;20052;-85
2021/06/10 08:54:16;;;;;;;1.75;1.65;;;24.90;63.40;;;;;;5050079;28;20131;-86
2021/06/10 08:56:43;;;;;;;1.83;1.73;;;25.00;63.40;;;;;;5048800;28;20551;-85
2021/06/10 08:59:09;;;;;;;1.95;1.77;;;25.00;63.20;;;;;;5052107;28;20060;-83
2021/06/10 09:01:36;;;;;;;2.72;1.90;;;25.10;63.10;;;;;;5051097;28;20029;-85
2021/06/10 09:04:03;;;;;;;1.67;1.58;;;25.10;63.00;;;;;;5048535;28;20031;-83
2021/06/10 09:06:47;;;;;;;1.70;1.60;;;25.20;62.90;;;;;;5065502;28;20170;-83
2021/06/10 09:09:13;;;;;;;1.55;1.45;;;25.20;62.80;;;;;;5049674;28;20083;-83
2021/06/10 09:11:39;;;;;;;2.08;1.80;;;25.20;62.70;;;;;;5069111;28;20070;-83
2021/06/10 09:14:09;;;;;;;1.60;1.50;;;25.30;62.70;;;;;;5052059;28;20120;-82
2021/06/10 09:16:37;;;;;;;1.88;1.42;;;25.40;62.70;;;;;;5051364;28;20170;-83
2021/06/10 09:19:19;;;;;;;1.55;1.45;;;25.60;62.60;;;;;;5069937;28;20056;-82
2021/06/10 09:21:56;;;;;;;1.88;1.30;;;25.80;62.40;;;;;;5069276;28;20090;-84
2021/06/10 09:24:22;;;;;;;1.63;1.52;;;26.10;62.10;;;;;;5069615;28;20031;-83
2021/06/10 09:27:06;;;;;;;1.40;1.27;;;26.30;61.80;;;;;;5051124;28;20035;-84
2021/06/10 09:29:39;;;;;;;1.60;1.50;;;26.50;61.60;;;;;;5052406;28;20139;-83
2021/06/10 09:32:25;;;;;;;1.95;1.63;;;26.60;61.30;;;;;;5069163;28;20395;-83
2021/06/10 09:35:00;;;;;;;1.55;1.23;;;26.70;61.10;;;;;;5051654;28;20239;-84
2021/06/10 09:37:39;;;;;;;1.65;1.55;;;26.80;60.90;;;;;;5070502;28;20028;-88
2021/06/10 09:40:08;;;;;;;1.40;1.30;;;26.80;60.80;;;;;;5051753;28;20396;-87
2021/06/10 09:42:37;;;;;;;1.42;1.30;;;26.90;60.80;;;;;;5072571;28;20037;-88
2021/06/10 09:45:05;;;;;;;1.33;1.23;;;26.90;60.70;;;;;;5056493;28;20063;-88
2021/06/10 09:47:41;;;;;;;1.45;1.35;;;26.90;60.60;;;;;;5053519;28;20155;-86
2021/06/10 09:50:27;;;;;;;1.38;1.27;;;26.90;60.50;;;;;;5068114;28;20334;-84
2021/06/10 09:53:04;;;;;;;1.35;1.25;;;26.80;60.50;;;;;;5034393;28;20483;-85
2021/06/10 09:56:01;;;;;;;1.63;1.30;;;26.90;60.50;;;;;;5053427;28;20032;-85
2021/06/10 09:58:29;;;;;;;1.67;1.48;;;27.00;60.50;;;;;;5023219;28;20071;-86
2021/06/10 10:00:58;;;;;;;1.38;1.27;;;27.20;60.30;;;;;;5049216;28;20123;-86
2021/06/10 10:03:30;;;;;;;1.70;1.30;;;27.30;60.10;;;;;;5052161;28;20043;-87
2021/06/10 10:06:05;;;;;;;1.98;1.38;;;27.40;60.00;;;;;;5072278;28;20028;-89
2021/06/10 10:08:33;;;;;;;1.58;1.27;;;27.50;59.80;;;;;;5059754;28;20590;-84
2021/06/10 10:11:01;;;;;;;1.45;1.20;;;27.60;59.60;;;;;;5063517;28;20052;-84
2021/06/10 10:13:29;;;;;;;1.60;1.50;;;27.70;59.60;;;;;;5071919;28;20028;-88
2021/06/10 10:16:00;;;;;;;1.70;1.42;;;27.70;59.70;;;;;;5052861;28;20032;-86
2021/06/10 10:18:27;;;;;;;2.30;1.50;;;27.70;59.60;;;;;;5067972;28;20111;-84
2021/06/10 10:20:57;;;;;;;1.48;1.35;;;27.70;59.60;;;;;;5068955;28;20036;-87
2021/06/10 10:23:24;;;;;;;1.75;1.35;;;27.70;59.60;;;;;;5069741;28;20404;-87
2021/06/10 10:25:53;;;;;;;1.45;1.35;;;27.70;59.60;;;;;;5051156;28;20128;-85
2021/06/10 10:28:19;;;;;;;1.40;1.30;;;27.80;59.50;;;;;;5049868;28;20529;-82
2021/06/10 10:30:46;;;;;;;1.45;1.33;;;27.90;59.40;;;;;;5051349;28;20036;-83
2021/06/10 10:33:24;;;;;;;1.75;1.33;;;28.00;59.30;;;;;;5050615;28;20035;-83
2021/06/10 10:35:53;;;;;;;1.17;1.10;;;28.10;59.10;;;;;;5051286;28;20505;-85
2021/06/10 10:38:28;;;;;;;2.42;1.38;;;28.20;58.90;;;;;;5046999;28;20061;-85
2021/06/10 10:40:59;;;;;;;1.40;1.30;;;28.30;58.80;;;;;;5049209;28;20039;-85
2021/06/10 10:43:26;;;;;;;1.33;1.23;;;28.50;58.60;;;;;;5047736;28;20025;-86
2021/06/10 10:46:11;;;;;;;1.35;1.25;;;28.60;58.40;;;;;;5034020;28;20528;-86
2021/06/10 10:48:41;;;;;;;2.75;1.60;;;28.70;58.20;;;;;;5062258;28;20049;-87
2021/06/10 10:51:34;;;;;;;1.27;1.17;;;28.80;58.10;;;;;;5069639;28;20096;-85
2021/06/10 10:54:03;;;;;;;2.95;1.58;;;28.90;58.00;;;;;;5051203;28;20068;-85
2021/06/10 10:56:40;;;;;;;1.20;1.10;;;29.00;57.90;;;;;;5068390;28;20029;-84
2021/06/10 10:59:20;;;;;;;2.17;1.50;;;29.10;57.80;;;;;;5050391;28;20451;-84
2021/06/10 11:02:10;;;;;;;4.93;2.10;;;29.10;57.70;;;;;;5068564;28;20590;-84
2021/06/10 11:04:50;;;;;;;5.00;2.58;;;29.20;57.70;;;;;;5067571;28;20420;-83
2021/06/10 11:07:41;;;;;;;5.07;3.97;;;29.30;57.60;;;;;;5049793;28;20472;-83
2021/06/10 11:10:07;;;;;;;3.30;2.55;;;29.30;57.60;;;;;;5043091;28;20093;-86
2021/06/10 11:12:48;;;;;;;5.07;2.70;;;29.40;57.50;;;;;;5052716;28;20044;-84
2021/06/10 11:15:24;;;;;;;6.60;4.32;;;29.40;57.30;;;;;;5050912;28;20480;-84
2021/06/10 11:17:53;;;;;;;8.38;4.00;;;29.40;57.30;;;;;;5068112;28;20040;-83
2021/06/10 11:20:19;;;;;;;9.00;4.93;;;29.40;57.30;;;;;;5066609;28;20032;-83
2021/06/10 11:22:51;;;;;;;6.85;4.07;;;29.40;57.30;;;;;;5067320;28;20121;-84
2021/06/10 11:25:25;;;;;;;5.18;4.68;;;29.30;57.20;;;;;;5067493;28;20055;-82
2021/06/10 11:27:53;;;;;;;5.72;3.85;;;29.30;57.20;;;;;;5067924;28;20511;-83
2021/06/10 11:30:29;;;;;;;5.32;3.92;;;29.20;57.20;;;;;;5049508;28;20123;-84
2021/06/10 11:33:16;;;;;;;7.25;4.35;;;29.10;57.20;;;;;;5067060;28;20039;-84
2021/06/10 11:35:46;;;;;;;7.85;5.10;;;29.10;57.30;;;;;;5050417;28;20044;-86
2021/06/10 11:38:13;;;;;;;7.63;5.50;;;29.10;57.50;;;;;;5050438;28;20028;-87
2021/06/10 11:40:42;;;;;;;10.73;5.80;;;29.20;57.50;;;;;;5067477;28;20058;-86
2021/06/10 11:43:10;;;;;;;7.53;4.80;;;29.30;57.40;;;;;;5049812;28;20287;-86
2021/06/10 11:45:36;;;;;;;6.80;4.40;;;29.40;57.30;;;;;;5049510;28;20434;-85
2021/06/10 11:48:03;;;;;;;6.32;5.35;;;29.50;57.10;;;;;;5062611;28;20057;-87
2021/06/10 11:50:42;;;;;;;8.60;5.55;;;29.50;56.90;;;;;;5047282;28;20045;-84
2021/06/10 11:53:18;;;;;;;7.05;5.10;;;29.50;56.90;;;;;;5047040;28;20036;-86
2021/06/10 11:55:46;;;;;;;9.73;6.30;;;29.50;56.90;;;;;;5046473;28;20033;-85
2021/06/10 11:58:13;;;;;;;9.52;5.53;;;29.40;57.00;;;;;;5053654;28;20227;-85
2021/06/10 12:00:44;;;;;;;8.43;6.25;;;29.30;57.10;;;;;;5049043;28;20484;-84
2021/06/10 12:03:17;;;;;;;8.80;5.70;;;29.30;57.10;;;;;;5069732;28;20032;-88
2021/06/10 12:05:48;;;;;;;6.85;5.55;;;29.30;57.10;;;;;;5051492;28;20032;-86
2021/06/10 12:08:25;;;;;;;9.32;5.25;;;29.20;57.00;;;;;;5051736;28;20115;-86
2021/06/10 12:10:57;;;;;;;8.23;6.38;;;29.20;57.10;;;;;;5053105;28;20044;-89
2021/06/10 12:13:32;;;;;;;7.28;6.05;;;29.20;57.20;;;;;;5036236;28;20077;-91
2021/06/10 12:16:02;;;;;;;8.98;6.10;;;29.10;57.10;;;;;;5052053;28;20039;-88
2021/06/10 12:18:29;;;;;;;8.13;5.72;;;29.00;57.20;;;;;;5068171;28;20337;-89
2021/06/10 12:21:02;;;;;;;8.45;6.03;;;29.00;57.40;;;;;;5035895;28;20063;-88
2021/06/10 12:23:36;;;;;;;9.90;6.75;;;29.00;57.60;;;;;;5048850;28;20061;-90
2021/06/10 12:26:06;;;;;;;9.45;7.00;;;29.10;57.70;;;;;;5048745;28;20488;-90
2021/06/10 12:28:43;;;;;;;8.27;6.00;;;29.30;57.50;;;;;;5058773;28;20498;-85
2021/06/10 12:31:11;;;;;;;7.85;6.63;;;29.60;57.40;;;;;;5069394;28;20094;-85
2021/06/10 12:33:39;;;;;;;10.50;7.13;;;29.90;57.10;;;;;;5070667;28;20055;-85
2021/06/10 12:36:12;;;;;;;9.93;7.43;;;30.20;56.90;;;;;;5053793;28;20029;-84
2021/06/10 12:38:40;;;;;;;7.70;6.88;;;30.50;57.20;;;;;;5052701;28;20448;-84
2021/06/10 12:41:14;;;;;;;8.40;6.72;;;30.70;56.30;;;;;;5052836;28;20467;-87
2021/06/10 12:43:43;;;;;;;9.60;7.22;;;31.00;56.00;;;;;;5055592;28;20040;-85
2021/06/10 12:46:11;;;;;;;8.40;7.05;;;31.10;55.70;;;;;;5072028;28;20513;-87
2021/06/10 12:48:37;;;;;;;10.43;7.30;;;31.20;55.50;;;;;;5071033;28;20116;-85
2021/06/10 12:51:30;;;;;;;9.27;7.00;;;31.10;55.40;;;;;;5054043;28;20082;-88
2021/06/10 12:54:05;;;;;;;8.05;6.60;;;31.00;55.40;;;;;;5054816;28;20039;-88
2021/06/10 12:56:38;;;;;;;8.45;6.03;;;30.90;55.40;;;;;;5072123;28;20028;-87